Time;durP1;ratioP1;P1;durP2;ratioP2;P2;SDS_P1;SDS_P2;PMS_P1;PMS_P2;Temp;Humidity;BMP_temperature;BMP_pressure;BME280_temperature;BME280_humidity;BME280_pressure;Samples;Min_cycle;Max_cycle;Signal;HPM_P1;HPM_P2
2022/01/22 00:02:26;;;;;;;18.38;6.80;;;;;;;;;;6238849;28;20087;-61
2022/01/22 00:05:27;;;;;;;30.00;6.90;;;;;;;;;;6239165;28;20046;-61
2022/01/22 00:08:28;;;;;;;17.73;6.22;;;;;;;;;;6247362;28;20167;-61
2022/01/22 00:11:34;;;;;;;15.18;6.50;;;;;;;;;;6243753;28;20334;-62
2022/01/22 00:14:35;;;;;;;17.60;6.68;;;;;;;;;;6240961;28;20814;-61
2022/01/22 00:17:36;;;;;;;18.35;6.28;;;;;;;;;;6243103;28;20045;-62
2022/01/22 00:20:37;;;;;;;16.15;5.82;;;;;;;;;;6243083;28;20077;-62
2022/01/22 00:23:44;;;;;;;16.48;5.97;;;;;;;;;;6237900;28;20154;-62
2022/01/22 00:26:45;;;;;;;15.88;5.72;;;;;;;;;;6238286;28;20840;-61
2022/01/22 00:29:46;;;;;;;20.23;5.65;;;;;;;;;;6234602;28;20853;-62
2022/01/22 00:32:47;;;;;;;14.32;6.05;;;;;;;;;;6241187;28;20123;-62
2022/01/22 00:35:48;;;;;;;18.63;6.07;;;;;;;;;;6239756;28;20069;-62
2022/01/22 00:38:48;;;;;;;13.73;4.85;;;;;;;;;;6239525;28;20037;-62
2022/01/22 00:41:49;;;;;;;16.88;5.55;;;;;;;;;;6237592;28;20045;-61
2022/01/22 00:44:51;;;;;;;13.90;5.57;;;;;;;;;;6238048;28;20132;-62
2022/01/22 00:47:52;;;;;;;15.88;5.57;;;;;;;;;;6235400;28;20137;-61
2022/01/22 00:50:55;;;;;;;15.93;6.05;;;;;;;;;;6238288;28;20048;-62
2022/01/22 00:53:57;;;;;;;12.75;5.38;;;;;;;;;;6236785;28;20073;-61
2022/01/22 00:56:58;;;;;;;13.00;5.47;;;;;;;;;;6235961;28;20045;-61
2022/01/22 00:59:59;;;;;;;16.58;5.80;;;;;;;;;;6237323;28;20123;-61
2022/01/22 01:03:00;;;;;;;14.25;6.20;;;;;;;;;;6242273;28;20049;-61
2022/01/22 01:06:03;;;;;;;16.67;5.82;;;;;;;;;;6243805;28;20497;-61
2022/01/22 01:09:09;;;;;;;17.67;6.32;;;;;;;;;;6242163;28;20571;-61
2022/01/22 01:12:12;;;;;;;17.38;5.72;;;;;;;;;;6244898;28;20049;-61
2022/01/22 01:15:38;;;;;;;17.85;6.25;;;;;;;;;;6235083;28;21191;-61
2022/01/22 01:32:18;;;;;;;17.35;6.43;;;;;;;;;;6236349;28;20096;-63
2022/01/22 01:35:19;;;;;;;19.02;6.55;;;;;;;;;;6234743;28;20049;-63
2022/01/22 01:38:22;;;;;;;19.67;6.40;;;;;;;;;;6235030;28;20135;-62
2022/01/22 01:41:46;;;;;;;18.42;6.68;;;;;;;;;;6237315;28;20061;-63
2022/01/22 01:44:47;;;;;;;14.57;6.78;;;;;;;;;;6235854;28;20412;-61
2022/01/22 01:47:53;;;;;;;20.90;7.30;;;;;;;;;;6234023;28;20050;-62
2022/01/22 01:50:56;;;;;;;16.15;6.90;;;;;;;;;;6236124;28;20127;-62
2022/01/22 01:54:05;;;;;;;16.58;6.68;;;;;;;;;;6235500;28;20049;-62
2022/01/22 01:57:31;;;;;;;16.25;6.90;;;;;;;;;;6233374;28;20045;-62
2022/01/22 02:00:34;;;;;;;15.85;7.07;;;;;;;;;;6236009;28;20037;-63
2022/01/22 02:03:35;;;;;;;23.58;8.30;;;;;;;;;;6233170;28;20041;-63
2022/01/22 02:06:36;;;;;;;16.02;7.05;;;;;;;;;;6235361;28;20124;-62
2022/01/22 02:09:39;;;;;;;13.63;6.00;;;;;;;;;;6233876;28;20500;-63
2022/01/22 02:26:05;;;;;;;14.68;6.15;;;;;;;;;;6236363;28;20045;-63
2022/01/22 02:29:07;;;;;;;;;;;;;;;;;;6234007;28;20080;-62
2022/01/22 02:35:30;;;;;;;15.30;4.75;;;;;;;;;;6230888;28;20076;-62
2022/01/22 02:38:41;;;;;;;15.80;5.78;;;;;;;;;;6232680;28;20049;-62
2022/01/22 02:41:46;;;;;;;17.92;6.82;;;;;;;;;;6233654;28;20080;-62
2022/01/22 02:44:47;;;;;;;18.70;5.57;;;;;;;;;;6234245;28;20112;-62
2022/01/22 02:47:48;;;;;;;11.75;5.10;;;;;;;;;;6236490;28;20045;-62
2022/01/22 02:50:48;;;;;;;13.35;4.57;;;;;;;;;;6233633;28;20167;-62
2022/01/22 02:53:54;;;;;;;16.02;4.90;;;;;;;;;;6234350;28;20407;-62
2022/01/22 02:56:54;;;;;;;17.55;5.07;;;;;;;;;;6234826;28;20440;-62
2022/01/22 02:59:55;;;;;;;14.07;5.25;;;;;;;;;;6237081;28;20087;-62
2022/01/22 03:02:56;;;;;;;12.75;5.57;;;;;;;;;;6233722;28;20048;-62
2022/01/22 03:05:56;;;;;;;12.23;4.90;;;;;;;;;;6233544;28;20377;-62
2022/01/22 03:08:57;;;;;;;15.63;5.25;;;;;;;;;;6233480;28;20128;-62
2022/01/22 03:18:41;;;;;;;13.00;5.22;;;;;;;;;;6234451;28;20073;-62
2022/01/22 03:21:54;;;;;;;10.57;4.85;;;;;;;;;;6234392;28;20046;-62
2022/01/22 03:28:19;;;;;;;15.00;5.32;;;;;;;;;;6233531;28;21318;-61
2022/01/22 03:31:20;;;;;;;13.60;5.13;;;;;;;;;;6236665;28;20514;-62
2022/01/22 03:34:21;;;;;;;12.73;4.82;;;;;;;;;;6233646;28;20069;-63
2022/01/22 03:37:23;;;;;;;14.20;5.90;;;;;;;;;;6232559;28;20132;-62
2022/01/22 03:40:26;;;;;;;10.52;5.30;;;;;;;;;;6232852;28;20484;-62
2022/01/22 03:43:27;;;;;;;;;;;;;;;;;;6232859;28;20245;-62
2022/01/22 03:46:27;;;;;;;14.25;5.32;;;;;;;;;;6233122;28;19925;-62
2022/01/22 03:49:28;;;;;;;16.63;6.57;;;;;;;;;;6232055;28;20049;-62
2022/01/22 03:52:29;;;;;;;12.43;5.05;;;;;;;;;;6232627;28;20039;-62
2022/01/22 03:58:33;;;;;;;17.83;5.95;;;;;;;;;;6233352;28;20049;-62
2022/01/22 04:04:51;;;;;;;14.90;6.25;;;;;;;;;;6235642;28;20389;-62
2022/01/22 04:11:09;;;;;;;18.48;5.85;;;;;;;;;;6239511;28;20042;-62
2022/01/22 04:14:18;;;;;;;11.15;4.90;;;;;;;;;;6238450;28;20073;-62
2022/01/22 04:24:49;;;;;;;14.02;4.90;;;;;;;;;;6237709;28;20500;-62
2022/01/22 04:27:23;;;;;;;14.93;5.60;;;;;;;;;;6238642;28;20045;-64
2022/01/22 04:30:28;;;;;;;18.00;6.80;;;;;;;;;;6237303;28;20043;-62
2022/01/22 04:33:28;;;;;;;14.05;5.88;;;;;;;;;;6237315;28;20037;-62
2022/01/22 04:36:29;;;;;;;16.02;5.57;;;;;;;;;;6236679;28;20064;-62
2022/01/22 04:39:30;;;;;;;13.40;5.75;;;;;;;;;;6236100;28;20057;-61
2022/01/22 04:42:33;;;;;;;16.25;7.15;;;;;;;;;;6238289;28;20611;-62
2022/01/22 04:48:53;;;;;;;19.85;8.18;;;;;;;;;;6237242;28;20156;-61
2022/01/22 04:55:12;;;;;;;19.85;7.10;;;;;;;;;;6231413;28;20042;-62
2022/01/22 04:58:13;;;;;;;13.52;5.55;;;;;;;;;;6234606;28;20448;-61
2022/01/22 05:01:14;;;;;;;14.68;6.18;;;;;;;;;;6238282;28;20044;-62
2022/01/22 05:04:15;;;;;;;13.18;4.85;;;;;;;;;;6240121;28;20046;-62
2022/01/22 05:07:16;;;;;;;14.00;5.38;;;;;;;;;;6245493;28;20036;-62
2022/01/22 05:10:17;;;;;;;14.98;5.28;;;;;;;;;;6242909;28;20099;-62
2022/01/22 05:13:17;;;;;;;13.65;5.93;;;;;;;;;;6234799;28;20608;-61
2022/01/22 05:16:19;;;;;;;14.10;6.47;;;;;;;;;;6235617;28;20045;-62
2022/01/22 05:19:59;;;;;;;12.82;5.85;;;;;;;;;;6239540;28;20519;-62
2022/01/22 05:23:03;;;;;;;15.05;5.80;;;;;;;;;;6234139;28;20049;-62
2022/01/22 05:26:07;;;;;;;15.93;5.57;;;;;;;;;;6233357;28;20516;-63
2022/01/22 05:38:38;;;;;;;31.23;14.05;;;;;;;;;;6235941;28;20110;-62
2022/01/22 05:41:40;;;;;;;21.80;8.75;;;;;;;;;;6235340;28;20685;-62
2022/01/22 05:44:41;;;;;;;20.48;7.97;;;;;;;;;;6236889;28;20049;-61
2022/01/22 05:47:44;;;;;;;16.73;8.20;;;;;;;;;;6236364;28;20497;-62
2022/01/22 05:50:58;;;;;;;18.20;8.52;;;;;;;;;;6235292;28;20087;-62
2022/01/22 06:00:19;;;;;;;25.25;9.57;;;;;;;;;;6234349;28;20103;-62
2022/01/22 06:03:19;;;;;;;18.92;8.95;;;;;;;;;;6235438;28;20095;-62
2022/01/22 06:06:20;;;;;;;23.00;9.90;;;;;;;;;;6235267;28;20054;-62
2022/01/22 06:09:21;;;;;;;25.08;10.02;;;;;;;;;;6236252;28;20053;-62
2022/01/22 06:12:43;;;;;;;22.88;8.85;;;;;;;;;;6233107;28;20053;-62
2022/01/22 06:15:43;;;;;;;25.23;8.10;;;;;;;;;;6234756;28;20088;-62
2022/01/22 06:18:44;;;;;;;18.45;8.10;;;;;;;;;;6236657;28;20115;-62
2022/01/22 06:21:45;;;;;;;17.92;7.82;;;;;;;;;;6237117;28;20382;-62
2022/01/22 06:24:46;;;;;;;21.08;8.13;;;;;;;;;;6232706;28;20456;-62
2022/01/22 06:27:46;;;;;;;21.33;8.85;;;;;;;;;;6233781;28;20049;-62
2022/01/22 06:30:47;;;;;;;24.58;8.88;;;;;;;;;;6234611;28;20037;-62
2022/01/22 06:33:47;;;;;;;18.55;8.20;;;;;;;;;;6236170;28;20148;-62
2022/01/22 06:36:48;;;;;;;22.80;9.27;;;;;;;;;;6236249;28;20045;-61
2022/01/22 06:43:08;;;;;;;31.02;10.95;;;;;;;;;;6236234;28;20481;-62
2022/01/22 06:46:08;;;;;;;26.50;11.15;;;;;;;;;;6234891;28;20136;-62
2022/01/22 06:49:09;;;;;;;24.52;11.60;;;;;;;;;;6234365;28;20077;-62
2022/01/22 06:52:10;;;;;;;32.78;14.43;;;;;;;;;;6234048;28;20225;-62
2022/01/22 06:55:14;;;;;;;33.05;14.98;;;;;;;;;;6233756;28;20830;-62
2022/01/22 06:58:15;;;;;;;42.75;17.50;;;;;;;;;;6233198;28;20076;-62
2022/01/22 07:01:16;;;;;;;41.30;19.08;;;;;;;;;;6235375;28;20478;-62
2022/01/22 07:04:17;;;;;;;44.95;20.42;;;;;;;;;;6237455;28;20674;-62
2022/01/22 07:07:18;;;;;;;44.88;19.85;;;;;;;;;;6233715;28;20073;-61
2022/01/22 07:10:19;;;;;;;47.33;21.23;;;;;;;;;;6234805;28;20046;-62
2022/01/22 07:13:20;;;;;;;45.58;19.83;;;;;;;;;;6236044;28;20052;-61
2022/01/22 07:16:21;;;;;;;45.60;20.65;;;;;;;;;;6233506;28;20045;-62
2022/01/22 07:19:21;;;;;;;53.85;20.73;;;;;;;;;;6247202;28;20050;-61
2022/01/22 07:22:36;;;;;;;58.05;21.95;;;;;;;;;;6234943;28;20611;-62
2022/01/22 07:25:38;;;;;;;58.80;21.52;;;;;;;;;;6234894;28;20073;-61
2022/01/22 07:28:39;;;;;;;64.00;23.25;;;;;;;;;;6234669;28;20034;-61
2022/01/22 07:31:40;;;;;;;68.00;22.65;;;;;;;;;;6234687;28;20057;-62
2022/01/22 07:34:40;;;;;;;61.53;22.25;;;;;;;;;;6233430;28;20183;-61
2022/01/22 07:37:41;;;;;;;73.68;24.40;;;;;;;;;;6234081;28;20620;-60
2022/01/22 07:40:41;;;;;;;69.15;24.20;;;;;;;;;;6240990;28;20127;-60
2022/01/22 07:43:43;;;;;;;85.53;27.20;;;;;;;;;;6238701;28;20041;-60
2022/01/22 07:46:43;;;;;;;126.75;34.13;;;;;;;;;;6240405;28;20068;-61
2022/01/22 07:49:44;;;;;;;128.00;39.67;;;;;;;;;;6243244;28;20053;-61
2022/01/22 07:52:45;;;;;;;134.45;49.28;;;;;;;;;;6243924;28;20041;-61
2022/01/22 07:55:45;;;;;;;90.45;33.58;;;;;;;;;;6244221;28;20504;-61
2022/01/22 07:58:46;;;;;;;113.82;44.92;;;;;;;;;;6246149;28;20140;-60
2022/01/22 08:01:47;;;;;;;69.90;30.70;;;;;;;;;;6244123;28;20141;-61
2022/01/22 08:04:48;;;;;;;138.57;58.70;;;;;;;;;;6267280;28;20045;-60
2022/01/22 08:07:49;;;;;;;156.35;63.22;;;;;;;;;;6267291;28;20048;-58
2022/01/22 08:10:49;;;;;;;156.63;62.55;;;;;;;;;;6262698;28;20488;-60
2022/01/22 08:13:50;;;;;;;131.48;51.63;;;;;;;;;;6244603;28;20052;-60
2022/01/22 08:16:51;;;;;;;151.25;61.40;;;;;;;;;;6253835;28;20139;-60
2022/01/22 08:19:53;;;;;;;62.90;27.30;;;;;;;;;;6249421;28;20044;-60
2022/01/22 08:22:54;;;;;;;;;;;;;;;;;;6246828;28;20126;-60
2022/01/22 08:25:55;;;;;;;41.58;15.85;;;;;;;;;;6242318;28;19925;-60
2022/01/22 08:28:58;;;;;;;33.90;15.10;;;;;;;;;;6246293;28;20160;-60
2022/01/22 08:38:31;;;;;;;34.45;12.75;;;;;;;;;;6240127;28;20156;-61
2022/01/22 08:41:33;;;;;;;32.42;12.77;;;;;;;;;;6242668;28;20502;-59
2022/01/22 08:44:34;;;;;;;;;;;;;;;;;;6243870;28;20127;-59
2022/01/22 08:47:35;;;;;;;31.38;12.10;;;;;;;;;;6239531;28;19925;-59
2022/01/22 08:50:36;;;;;;;29.95;11.50;;;;;;;;;;6242728;28;20507;-59
2022/01/22 08:53:36;;;;;;;36.28;11.63;;;;;;;;;;6244404;28;20053;-56
2022/01/22 08:56:39;;;;;;;31.02;10.73;;;;;;;;;;6241027;28;20037;-60
2022/01/22 08:59:41;;;;;;;26.42;10.65;;;;;;;;;;6249367;28;20073;-61
2022/01/22 09:02:44;;;;;;;39.00;12.98;;;;;;;;;;6248004;28;20057;-66
2022/01/22 09:05:46;;;;;;;31.52;11.70;;;;;;;;;;6244844;28;20041;-58
2022/01/22 09:08:50;;;;;;;;;;;;;;;;;;6241207;28;20065;-59
2022/01/22 09:11:51;;;;;;;32.83;11.20;;;;;;;;;;6240019;28;19925;-60
2022/01/22 09:14:52;;;;;;;28.02;10.00;;;;;;;;;;6239808;28;20079;-60
2022/01/22 09:17:52;;;;;;;27.30;10.40;;;;;;;;;;6248542;28;20084;-60
2022/01/22 09:23:54;;;;;;;32.88;10.02;;;;;;;;;;6247265;28;20049;-60
2022/01/22 09:26:58;;;;;;;30.58;9.40;;;;;;;;;;6257113;28;20052;-60
2022/01/22 09:29:59;;;;;;;30.17;8.75;;;;;;;;;;6261680;28;20057;-61
2022/01/22 09:32:59;;;;;;;25.52;8.77;;;;;;;;;;6240099;28;20041;-60
2022/01/22 09:36:00;;;;;;;23.17;8.25;;;;;;;;;;6240901;28;20041;-60
2022/01/22 09:39:03;;;;;;;21.58;8.52;;;;;;;;;;6239690;28;20045;-60
2022/01/22 09:42:04;;;;;;;22.77;8.02;;;;;;;;;;6239117;28;20049;-61
2022/01/22 09:45:06;;;;;;;25.00;8.23;;;;;;;;;;6250886;28;20480;-59
2022/01/22 09:48:07;;;;;;;21.15;7.43;;;;;;;;;;6253759;28;20110;-60
2022/01/22 09:51:09;;;;;;;29.52;9.30;;;;;;;;;;6248155;28;20049;-59
2022/01/22 09:54:11;;;;;;;22.17;7.22;;;;;;;;;;6247992;28;20051;-59
2022/01/22 09:57:13;;;;;;;;;;;;;;;;;;6247940;28;20492;-60
2022/01/22 10:00:18;;;;;;;18.70;7.00;;;;;;;;;;6240399;28;20284;-60
2022/01/22 10:03:20;;;;;;;22.35;9.10;;;;;;;;;;6239790;28;21684;-61
2022/01/22 10:06:24;;;;;;;22.35;8.30;;;;;;;;;;6241615;28;20042;-60
2022/01/22 10:09:34;;;;;;;20.00;8.27;;;;;;;;;;6239579;28;20619;-61
2022/01/22 10:12:44;;;;;;;23.98;9.27;;;;;;;;;;6240386;28;20041;-59
2022/01/22 10:15:45;;;;;;;26.65;9.63;;;;;;;;;;6240319;28;20077;-61
2022/01/22 10:19:16;;;;;;;27.73;8.35;;;;;;;;;;6240513;28;20045;-59
2022/01/22 10:22:17;;;;;;;20.35;8.80;;;;;;;;;;6264634;28;20041;-60
2022/01/22 10:25:23;;;;;;;24.92;8.68;;;;;;;;;;6246045;28;20747;-60
2022/01/22 10:28:27;;;;;;;25.88;9.40;;;;;;;;;;6255888;28;20091;-60
2022/01/22 10:31:41;;;;;;;22.42;9.35;;;;;;;;;;6256836;28;20060;-67
2022/01/22 10:34:42;;;;;;;29.23;9.88;;;;;;;;;;6250443;28;20441;-60
2022/01/22 10:37:43;;;;;;;20.40;6.85;;;;;;;;;;6239714;28;20136;-61
2022/01/22 10:40:46;;;;;;;16.58;5.95;;;;;;;;;;6237746;28;20049;-61
2022/01/22 10:43:55;;;;;;;18.50;6.03;;;;;;;;;;6238374;28;20443;-60
2022/01/22 10:47:03;;;;;;;19.83;7.68;;;;;;;;;;6242023;28;20060;-61
2022/01/22 10:50:22;;;;;;;18.67;7.00;;;;;;;;;;6240176;28;20416;-60
2022/01/22 10:53:35;;;;;;;17.85;6.75;;;;;;;;;;6240039;28;20508;-60
2022/01/22 10:56:39;;;;;;;16.58;5.40;;;;;;;;;;6244490;28;20073;-59
2022/01/22 10:59:55;;;;;;;17.83;6.85;;;;;;;;;;6241334;28;20057;-59
2022/01/22 11:02:56;;;;;;;20.33;6.65;;;;;;;;;;6240115;28;20057;-62
2022/01/22 11:05:59;;;;;;;16.48;5.82;;;;;;;;;;6241289;28;20202;-61
2022/01/22 11:09:00;;;;;;;16.02;6.40;;;;;;;;;;6240249;28;20041;-63
2022/01/22 11:12:03;;;;;;;22.98;7.10;;;;;;;;;;6240519;28;20560;-63
2022/01/22 11:15:04;;;;;;;20.48;7.00;;;;;;;;;;6241687;28;20152;-63
2022/01/22 11:18:05;;;;;;;24.10;7.25;;;;;;;;;;6246294;28;20076;-62
2022/01/22 11:21:06;;;;;;;23.08;7.53;;;;;;;;;;6244668;28;20049;-61
2022/01/22 11:24:11;;;;;;;17.15;6.93;;;;;;;;;;6244316;28;20546;-61
2022/01/22 11:27:15;;;;;;;21.25;7.43;;;;;;;;;;6243952;28;20049;-65
2022/01/22 11:30:17;;;;;;;27.25;7.72;;;;;;;;;;6247848;28;20049;-62
2022/01/22 11:33:19;;;;;;;18.05;6.93;;;;;;;;;;6243658;28;20095;-58
2022/01/22 11:36:35;;;;;;;23.58;8.15;;;;;;;;;;6246800;28;20162;-60
2022/01/22 11:39:36;;;;;;;16.98;6.78;;;;;;;;;;6241939;28;20060;-58
2022/01/22 11:43:01;;;;;;;17.90;6.93;;;;;;;;;;6244570;28;20061;-60
2022/01/22 11:46:20;;;;;;;20.20;7.72;;;;;;;;;;6234033;28;20068;-62
2022/01/22 11:49:24;;;;;;;21.25;7.60;;;;;;;;;;6239085;28;20067;-61
2022/01/22 11:52:27;;;;;;;18.33;7.28;;;;;;;;;;6241188;28;20042;-60
2022/01/22 11:55:28;;;;;;;19.45;6.38;;;;;;;;;;6240179;28;20092;-62
2022/01/22 11:58:29;;;;;;;17.90;6.78;;;;;;;;;;6241846;28;20049;-62
2022/01/22 12:01:51;;;;;;;16.88;6.75;;;;;;;;;;6243853;28;20041;-61
2022/01/22 12:05:02;;;;;;;20.15;6.82;;;;;;;;;;6238767;28;20041;-65
2022/01/22 12:08:03;;;;;;;22.52;7.80;;;;;;;;;;6239804;28;20053;-63
2022/01/22 12:23:55;;;;;;;23.40;6.90;;;;;;;;;;6237191;28;20040;-63
2022/01/22 12:27:01;;;;;;;20.45;7.38;;;;;;;;;;6236253;28;20112;-61
2022/01/22 12:30:03;;;;;;;18.95;6.55;;;;;;;;;;6232966;28;20566;-62
2022/01/22 12:33:12;;;;;;;20.85;5.97;;;;;;;;;;6235024;28;20114;-61
2022/01/22 12:36:22;;;;;;;19.52;6.90;;;;;;;;;;6242859;28;20057;-63
2022/01/22 12:39:28;;;;;;;18.17;6.20;;;;;;;;;;6237723;28;20077;-62
2022/01/22 12:42:52;;;;;;;19.70;7.30;;;;;;;;;;6235597;28;20530;-61
2022/01/22 12:45:56;;;;;;;17.70;6.30;;;;;;;;;;6234811;28;20072;-63
2022/01/22 12:48:57;;;;;;;19.30;6.95;;;;;;;;;;6238036;28;20049;-60
2022/01/22 12:52:00;;;;;;;16.85;6.70;;;;;;;;;;6234573;28;20049;-60
2022/01/22 12:55:18;;;;;;;16.50;6.20;;;;;;;;;;6236190;28;20049;-61
2022/01/22 12:58:26;;;;;;;17.90;5.78;;;;;;;;;;6231802;28;20136;-60
2022/01/22 13:01:29;;;;;;;16.75;6.10;;;;;;;;;;6236195;28;20095;-64
2022/01/22 13:04:30;;;;;;;21.80;6.68;;;;;;;;;;6235458;28;20057;-62
2022/01/22 13:07:53;;;;;;;20.77;6.65;;;;;;;;;;6241081;28;20487;-59
2022/01/22 13:10:55;;;;;;;16.42;6.13;;;;;;;;;;6238152;28;20041;-61
2022/01/22 13:13:56;;;;;;;;;;;;;;;;;;6238014;28;20136;-61
2022/01/22 13:16:57;;;;;;;17.92;6.05;;;;;;;;;;6236189;28;20031;-61
2022/01/22 13:19:59;;;;;;;17.40;7.15;;;;;;;;;;6234435;28;20049;-61
2022/01/22 13:23:15;;;;;;;18.10;6.32;;;;;;;;;;6232455;28;20069;-59
2022/01/22 13:26:15;;;;;;;18.88;6.68;;;;;;;;;;6228924;28;20081;-62
2022/01/22 13:29:22;;;;;;;21.20;6.53;;;;;;;;;;6236514;28;20045;-58
2022/01/22 13:32:40;;;;;;;24.58;8.15;;;;;;;;;;6240117;28;20049;-63
2022/01/22 13:49:11;;;;;;;25.85;8.23;;;;;;;;;;6239769;28;20338;-62
2022/01/22 13:52:16;;;;;;;27.85;8.80;;;;;;;;;;6237510;28;20099;-61
2022/01/22 13:55:17;;;;;;;22.25;8.20;;;;;;;;;;6241782;28;20045;-62
2022/01/22 13:58:19;;;;;;;25.23;8.27;;;;;;;;;;6242980;28;20069;-59
2022/01/22 14:04:59;;;;;;;21.83;7.07;;;;;;;;;;6223154;28;20050;-63
2022/01/22 14:08:08;;;;;;;23.05;6.95;;;;;;;;;;6239363;28;20041;-61
2022/01/22 14:11:11;;;;;;;22.10;7.88;;;;;;;;;;6241474;28;20472;-61
2022/01/22 14:14:12;;;;;;;21.67;8.18;;;;;;;;;;6239708;28;20054;-55
2022/01/22 14:17:14;;;;;;;16.05;7.13;;;;;;;;;;6256595;28;20508;-56
2022/01/22 14:20:14;;;;;;;26.25;9.05;;;;;;;;;;6246697;28;20081;-60
2022/01/22 14:23:24;;;;;;;21.77;8.48;;;;;;;;;;6254464;28;20775;-60
2022/01/22 14:26:34;;;;;;;27.95;9.23;;;;;;;;;;6246715;28;20393;-55
2022/01/22 14:29:43;;;;;;;35.88;9.75;;;;;;;;;;6238547;28;20037;-56
2022/01/22 14:32:55;;;;;;;27.73;9.18;;;;;;;;;;6236686;28;20088;-60
2022/01/22 14:36:01;;;;;;;29.02;10.05;;;;;;;;;;6238747;28;20041;-59
2022/01/22 14:39:28;;;;;;;25.63;9.50;;;;;;;;;;6241812;28;20041;-58
2022/01/22 14:46:03;;;;;;;21.75;8.80;;;;;;;;;;6240413;28;20056;-61
2022/01/22 14:49:04;;;;;;;26.05;8.73;;;;;;;;;;6237027;28;20053;-63
2022/01/22 14:52:07;;;;;;;23.10;9.00;;;;;;;;;;6234119;28;20408;-62
2022/01/22 14:55:11;;;;;;;20.80;8.63;;;;;;;;;;6237847;28;20053;-64
2022/01/22 14:58:12;;;;;;;18.95;8.50;;;;;;;;;;6237128;28;20069;-61
2022/01/22 15:01:12;;;;;;;20.85;8.07;;;;;;;;;;6238065;28;20063;-61
2022/01/22 15:04:13;;;;;;;22.30;8.70;;;;;;;;;;6238616;28;20132;-61
2022/01/22 15:07:16;;;;;;;28.58;10.18;;;;;;;;;;6238976;28;20138;-61
2022/01/22 15:10:22;;;;;;;25.08;9.40;;;;;;;;;;6239056;28;20123;-58
2022/01/22 15:13:22;;;;;;;23.55;9.18;;;;;;;;;;6234863;28;20046;-58
2022/01/22 15:16:30;;;;;;;25.45;9.43;;;;;;;;;;6236107;28;20126;-62
2022/01/22 15:19:30;;;;;;;25.70;9.20;;;;;;;;;;6236002;28;20404;-60
2022/01/22 15:22:31;;;;;;;22.40;9.25;;;;;;;;;;6236159;28;20076;-59
2022/01/22 15:25:32;;;;;;;24.65;9.07;;;;;;;;;;6232169;28;20034;-66
2022/01/22 15:28:44;;;;;;;27.13;10.70;;;;;;;;;;6242428;28;20405;-59
2022/01/22 15:32:06;;;;;;;24.63;10.70;;;;;;;;;;6250573;28;20460;-59
2022/01/22 15:35:08;;;;;;;;;;;;;;;;;;6254944;28;20042;-57
2022/01/22 15:38:09;;;;;;;26.48;9.27;;;;;;;;;;6261779;28;19924;-63
2022/01/22 15:41:10;;;;;;;25.50;10.20;;;;;;;;;;6235937;28;20530;-60
2022/01/22 15:44:11;;;;;;;30.80;10.18;;;;;;;;;;6236185;28;20129;-61
2022/01/22 15:47:12;;;;;;;26.75;10.27;;;;;;;;;;6246365;28;20061;-60
2022/01/22 15:50:13;;;;;;;26.95;10.82;;;;;;;;;;6233249;28;20141;-62
2022/01/22 15:53:16;;;;;;;30.42;11.18;;;;;;;;;;6234323;28;20041;-65
2022/01/22 15:56:17;;;;;;;27.20;11.15;;;;;;;;;;6237940;28;20063;-60
2022/01/22 15:59:20;;;;;;;28.52;10.25;;;;;;;;;;6241259;28;20049;-60
2022/01/22 16:02:21;;;;;;;29.27;10.85;;;;;;;;;;6244308;28;20095;-62
2022/01/22 16:05:25;;;;;;;27.65;10.43;;;;;;;;;;6241071;28;20041;-61
2022/01/22 16:08:26;;;;;;;31.35;11.80;;;;;;;;;;6242506;28;20140;-59
2022/01/22 16:11:27;;;;;;;26.95;10.35;;;;;;;;;;6241981;28;20041;-62
2022/01/22 16:14:28;;;;;;;33.17;11.80;;;;;;;;;;6243775;28;20152;-62
2022/01/22 16:17:32;;;;;;;40.47;14.05;;;;;;;;;;6236277;28;20527;-62
2022/01/22 16:20:32;;;;;;;29.75;9.98;;;;;;;;;;6240643;28;20057;-63
2022/01/22 16:23:33;;;;;;;30.45;9.95;;;;;;;;;;6239027;28;21588;-63
2022/01/22 16:26:34;;;;;;;29.33;12.07;;;;;;;;;;6242497;28;20050;-63
2022/01/22 16:29:35;;;;;;;33.90;11.80;;;;;;;;;;6242593;28;20089;-62
2022/01/22 16:32:35;;;;;;;28.27;11.30;;;;;;;;;;6244694;28;20069;-61
2022/01/22 16:35:36;;;;;;;35.33;12.15;;;;;;;;;;6246224;28;20550;-61
2022/01/22 16:38:42;;;;;;;29.05;11.02;;;;;;;;;;6247268;28;20041;-62
2022/01/22 16:41:43;;;;;;;31.02;13.23;;;;;;;;;;6240660;28;20527;-65
2022/01/22 16:45:07;;;;;;;44.88;14.05;;;;;;;;;;6241040;28;20453;-62
2022/01/22 16:54:45;;;;;;;30.25;11.35;;;;;;;;;;6232928;28;20141;-62
2022/01/22 16:57:55;;;;;;;35.53;10.98;;;;;;;;;;6229467;28;20046;-61
2022/01/22 17:00:59;;;;;;;29.75;10.63;;;;;;;;;;6232731;28;20488;-61
2022/01/22 17:04:00;;;;;;;32.80;10.32;;;;;;;;;;6233539;28;20053;-60
2022/01/22 17:07:06;;;;;;;38.97;12.73;;;;;;;;;;6227371;28;20140;-61
2022/01/22 17:10:19;;;;;;;28.17;11.00;;;;;;;;;;6233087;28;20044;-62
2022/01/22 17:16:39;;;;;;;28.88;10.27;;;;;;;;;;6228404;28;20053;-63
2022/01/22 17:19:40;;;;;;;40.83;12.38;;;;;;;;;;6231903;28;20107;-62
2022/01/22 17:22:41;;;;;;;38.25;13.27;;;;;;;;;;6233019;28;20476;-62
2022/01/22 17:25:42;;;;;;;33.03;11.77;;;;;;;;;;6234537;28;20108;-64
2022/01/22 17:28:43;;;;;;;35.72;11.38;;;;;;;;;;6229146;28;20046;-62
2022/01/22 17:31:44;;;;;;;31.90;10.10;;;;;;;;;;6230835;28;21128;-62
2022/01/22 17:34:45;;;;;;;27.35;10.02;;;;;;;;;;6231249;28;20061;-61
2022/01/22 17:37:46;;;;;;;36.00;11.60;;;;;;;;;;6233138;28;20459;-62
2022/01/22 17:41:00;;;;;;;37.95;11.43;;;;;;;;;;6231389;28;20069;-63
2022/01/22 17:44:01;;;;;;;33.03;10.90;;;;;;;;;;6229799;28;20041;-64
2022/01/22 17:47:04;;;;;;;31.15;10.70;;;;;;;;;;6230419;28;20191;-61
2022/01/22 17:50:09;;;;;;;30.70;9.73;;;;;;;;;;6229315;28;20064;-62
2022/01/22 17:53:09;;;;;;;34.80;9.93;;;;;;;;;;6232782;28;20041;-64
2022/01/22 17:56:10;;;;;;;27.63;10.68;;;;;;;;;;6243966;28;20049;-61
2022/01/22 17:59:11;;;;;;;27.95;11.02;;;;;;;;;;6242584;28;20504;-61
2022/01/22 18:02:13;;;;;;;30.05;10.00;;;;;;;;;;6231129;28;20077;-61
2022/01/22 18:05:14;;;;;;;25.98;9.52;;;;;;;;;;6244557;28;20049;-60
2022/01/22 18:08:16;;;;;;;29.42;9.88;;;;;;;;;;6237095;28;20459;-64
2022/01/22 18:11:18;;;;;;;25.63;9.45;;;;;;;;;;6233174;28;20096;-61
2022/01/22 18:14:19;;;;;;;30.75;10.07;;;;;;;;;;6236940;28;20041;-59
2022/01/22 18:17:20;;;;;;;23.20;9.00;;;;;;;;;;6231767;28;20057;-59
2022/01/22 18:20:21;;;;;;;28.25;9.55;;;;;;;;;;6234997;28;20088;-60
2022/01/22 18:23:21;;;;;;;26.40;9.23;;;;;;;;;;6236863;28;20457;-63
2022/01/22 18:26:23;;;;;;;31.85;10.25;;;;;;;;;;6238301;28;20457;-60
2022/01/22 18:29:24;;;;;;;27.17;10.43;;;;;;;;;;6243379;28;20068;-60
2022/01/22 18:32:24;;;;;;;32.38;9.73;;;;;;;;;;6234732;28;20392;-65
2022/01/22 18:35:25;;;;;;;28.08;10.40;;;;;;;;;;6236167;28;20127;-61
2022/01/22 18:38:26;;;;;;;31.65;10.07;;;;;;;;;;6237435;28;20144;-66
2022/01/22 18:41:26;;;;;;;27.88;9.60;;;;;;;;;;6236019;28;20141;-59
2022/01/22 18:44:27;;;;;;;27.92;9.50;;;;;;;;;;6241287;28;20038;-63
2022/01/22 18:47:29;;;;;;;30.55;10.50;;;;;;;;;;6240509;28;20132;-67
2022/01/22 18:50:31;;;;;;;32.40;9.82;;;;;;;;;;6242833;28;20041;-63
2022/01/22 18:53:36;;;;;;;29.67;10.32;;;;;;;;;;6239793;28;20045;-59
2022/01/22 18:56:37;;;;;;;37.97;13.15;;;;;;;;;;6238549;28;20408;-61
2022/01/22 18:59:38;;;;;;;28.52;11.25;;;;;;;;;;6239138;28;20048;-60
2022/01/22 19:02:39;;;;;;;26.90;9.80;;;;;;;;;;6236039;28;20080;-62
2022/01/22 19:05:41;;;;;;;29.75;11.65;;;;;;;;;;6236960;28;20487;-60
2022/01/22 19:08:42;;;;;;;;;;;;;;;;;;6235775;28;20053;-61
2022/01/22 19:11:43;;;;;;;29.42;10.63;;;;;;;;;;6230087;28;19936;-61
2022/01/22 19:14:45;;;;;;;30.60;10.45;;;;;;;;;;6236782;28;20045;-62
2022/01/22 19:17:46;;;;;;;27.98;10.15;;;;;;;;;;6236497;28;20046;-64
2022/01/22 19:20:47;;;;;;;24.10;8.70;;;;;;;;;;6236296;28;20088;-67
2022/01/22 19:24:08;;;;;;;28.50;9.82;;;;;;;;;;6230249;28;20089;-64
2022/01/22 19:30:32;;;;;;;28.52;10.80;;;;;;;;;;6234918;28;20133;-63
2022/01/22 19:33:33;;;;;;;29.25;10.52;;;;;;;;;;6230313;28;20488;-59
2022/01/22 19:36:36;;;;;;;29.15;9.85;;;;;;;;;;6243787;28;20084;-67
2022/01/22 19:39:37;;;;;;;29.58;9.48;;;;;;;;;;6241933;28;20103;-58
2022/01/22 19:42:41;;;;;;;32.20;11.02;;;;;;;;;;6235548;28;20060;-61
2022/01/22 19:45:44;;;;;;;30.17;10.57;;;;;;;;;;6226518;28;20147;-65
2022/01/22 19:48:46;;;;;;;36.17;11.23;;;;;;;;;;6234302;28;20056;-62
2022/01/22 19:51:47;;;;;;;37.57;13.30;;;;;;;;;;6235237;28;20247;-66
2022/01/22 19:54:48;;;;;;;39.75;10.90;;;;;;;;;;6231832;28;20417;-62
2022/01/22 19:57:49;;;;;;;34.30;11.68;;;;;;;;;;6231254;28;20045;-64
2022/01/22 20:00:50;;;;;;;34.67;10.95;;;;;;;;;;6234341;28;20405;-65
2022/01/22 20:03:52;;;;;;;36.92;12.13;;;;;;;;;;6230065;28;20917;-63
2022/01/22 20:06:52;;;;;;;32.78;10.95;;;;;;;;;;6233901;28;20049;-63
2022/01/22 20:09:53;;;;;;;30.35;10.07;;;;;;;;;;6235435;28;20048;-64
2022/01/22 20:12:57;;;;;;;38.20;11.90;;;;;;;;;;6232288;28;20052;-66
2022/01/22 20:15:57;;;;;;;35.50;11.15;;;;;;;;;;6233919;28;20057;-64
2022/01/22 20:18:59;;;;;;;28.83;10.35;;;;;;;;;;6233369;28;20287;-65
2022/01/22 20:22:01;;;;;;;34.63;11.57;;;;;;;;;;6232931;28;20199;-65